Pagrindinis puslapis
METAR-TAF:

METAR-TAF

Oro uostai :

Burnet Municipal Airport (Kate Craddock Field)

Burnet, Teksasas, Jungtinės Amerikos Valstijos

platuma: 30-44-26N, ilguma: 098-14-07W, Aukštis: 392 m

Dabartinis oras

Ataskaita buvo paskelbta 34 minutes, ne 10:53 UTC
Vėjas 3 kt iš Šiaurės/Šiaurės Vakarų
Temperatūra 19°C
Drėgmė 88%
Slėgis 1020 hPa
Matomumas: 16.1 km
Giedras dangus

METAR: KBMQ 291053Z AUTO 34003KT 10SM CLR 19/17 A3012 RMK AO2 SLP185 T01890172 $

Laikas: 06:27 (11:27 UTC)


TAF: trūkstamas

Orai ataskaitas ir orų prognozės (METAR, TAF).

turimą stotys yra geltonos ir raudonos taškus žemėlapyje.

Perkelti pele per norėdami pamatyti stoties vardą.

Tada spustelėkite, norėdami matyti oro stebėjimo ir prognozės.

Norėdami pakeisti žemėlapį: spustelėkite ant žalios mygtukų su juodo kryžiaus žemyn,; žalią mygtuką su brūkšneliu, jei norite nutolinti; arba žalių rodyklių gretimoms žemėlapius.


METAR-TAF: